Time;durP1;ratioP1;P1;durP2;ratioP2;P2;SDS_P1;SDS_P2;PMS_P1;PMS_P2;Temp;Humidity;BMP_temperature;BMP_pressure;BME280_temperature;BME280_humidity;BME280_pressure;Samples;Min_cycle;Max_cycle;Signal;HPM_P1;HPM_P2
2021/03/24 00:00:36;;;;;;;35.78;16.38;;;29.80;76.40;;;;;;5124190;28;20019;-50
2021/03/24 00:03:04;;;;;;;40.85;16.70;;;29.80;76.60;;;;;;5124363;28;20034;-47
2021/03/24 00:05:36;;;;;;;43.05;17.65;;;29.80;76.70;;;;;;5124159;28;20074;-49
2021/03/24 00:08:04;;;;;;;40.35;16.48;;;29.80;76.80;;;;;;5124418;28;20035;-51
2021/03/24 00:10:32;;;;;;;62.83;30.42;;;29.80;77.00;;;;;;5124197;28;20050;-49
2021/03/24 00:13:00;;;;;;;62.15;29.55;;;29.80;77.10;;;;;;5124343;28;20226;-54
2021/03/24 00:15:27;;;;;;;63.38;21.85;;;29.70;77.30;;;;;;5124255;28;20015;-54
2021/03/24 00:17:54;;;;;;;61.40;20.17;;;29.70;77.60;;;;;;5124224;28;20031;-48
2021/03/24 00:20:25;;;;;;;59.47;18.27;;;29.70;77.90;;;;;;5123916;28;20115;-47
2021/03/24 00:22:52;;;;;;;54.38;17.52;;;29.70;78.00;;;;;;5122899;28;20076;-54
2021/03/24 00:25:19;;;;;;;50.15;16.13;;;29.70;78.10;;;;;;5123955;28;20016;-47
2021/03/24 00:27:48;;;;;;;36.20;13.93;;;29.60;77.90;;;;;;5123125;28;20038;-53
2021/03/24 00:30:17;;;;;;;27.88;13.30;;;29.60;77.60;;;;;;5124046;28;20019;-50
2021/03/24 00:32:44;;;;;;;25.35;12.23;;;29.60;77.10;;;;;;5117954;28;20101;-55
2021/03/24 00:35:11;;;;;;;21.30;11.55;;;29.60;76.40;;;;;;5114076;28;20064;-46
2021/03/24 00:37:39;;;;;;;26.27;12.27;;;29.60;76.40;;;;;;5113571;28;20012;-50
2021/03/24 00:40:08;;;;;;;30.67;12.55;;;29.50;76.70;;;;;;5111962;28;20031;-49
2021/03/24 00:42:35;;;;;;;29.08;11.68;;;29.50;76.70;;;;;;5112283;28;20034;-51
2021/03/24 00:45:03;;;;;;;28.92;12.52;;;29.50;76.70;;;;;;5114346;28;20012;-51
2021/03/24 00:47:29;;;;;;;23.45;11.02;;;29.50;76.80;;;;;;5112009;28;20008;-52
2021/03/24 00:49:56;;;;;;;25.38;10.57;;;29.50;76.90;;;;;;5106007;28;20024;-47
2021/03/24 00:52:22;;;;;;;24.23;10.98;;;29.50;75.80;;;;;;5117832;28;20057;-51
2021/03/24 00:54:49;;;;;;;26.23;11.32;;;29.50;75.40;;;;;;5119897;28;20284;-45
2021/03/24 00:57:16;;;;;;;51.60;12.20;;;29.50;75.70;;;;;;5106075;28;20024;-47
2021/03/24 00:59:42;;;;;;;54.60;11.23;;;29.50;75.70;;;;;;5109715;28;20024;-52
2021/03/24 01:02:09;;;;;;;32.25;11.38;;;29.50;76.10;;;;;;5117861;28;20042;-43
2021/03/24 01:04:36;;;;;;;36.15;11.98;;;29.40;76.00;;;;;;5116726;28;20024;-51
2021/03/24 01:07:04;;;;;;;38.78;12.57;;;29.40;76.00;;;;;;5116638;28;20335;-48
2021/03/24 01:09:30;;;;;;;29.45;10.55;;;29.40;75.70;;;;;;5107516;28;20338;-51
2021/03/24 01:11:57;;;;;;;33.33;10.85;;;29.40;75.60;;;;;;5107157;28;20034;-53
2021/03/24 01:14:23;;;;;;;27.48;10.65;;;29.40;75.60;;;;;;5112651;28;20019;-46
2021/03/24 01:16:50;;;;;;;26.65;10.50;;;29.40;75.40;;;;;;5104918;28;20190;-44
2021/03/24 01:19:17;;;;;;;21.50;10.95;;;29.30;75.50;;;;;;5106593;28;20052;-49
2021/03/24 01:21:43;;;;;;;33.83;11.55;;;29.30;75.30;;;;;;5105792;28;20059;-48
2021/03/24 01:24:10;;;;;;;49.03;13.70;;;29.30;75.50;;;;;;5107231;28;20044;-47
2021/03/24 01:26:36;;;;;;;39.17;12.45;;;29.30;74.40;;;;;;5106928;28;20349;-49
2021/03/24 01:29:03;;;;;;;19.90;11.48;;;29.30;75.10;;;;;;5107545;28;20040;-51
2021/03/24 01:31:31;;;;;;;19.67;11.05;;;29.30;76.20;;;;;;5106712;28;20220;-46
2021/03/24 01:33:59;;;;;;;28.38;11.30;;;29.30;75.80;;;;;;5106254;28;20024;-53
2021/03/24 01:36:27;;;;;;;29.98;10.55;;;29.30;75.60;;;;;;5104877;28;20020;-49
2021/03/24 01:38:55;;;;;;;25.20;10.73;;;29.30;75.60;;;;;;5105157;28;20031;-47
2021/03/24 01:41:24;;;;;;;35.03;11.75;;;29.30;75.80;;;;;;5104525;28;20032;-51
2021/03/24 01:43:53;;;;;;;50.22;12.63;;;29.30;75.70;;;;;;5105663;28;20088;-52
2021/03/24 01:46:23;;;;;;;22.45;11.00;;;29.40;75.90;;;;;;5105615;28;20272;-46
2021/03/24 01:49:10;;;;;;;23.88;10.73;;;29.40;76.00;;;;;;5106052;28;20027;-51
2021/03/24 01:51:47;;;;;;;25.40;12.50;;;29.30;76.30;;;;;;5106202;28;20046;-52
2021/03/24 01:54:23;;;;;;;26.42;12.45;;;29.30;76.80;;;;;;5106352;28;20028;-46
2021/03/24 01:56:58;;;;;;;21.77;13.40;;;29.30;77.00;;;;;;5106189;28;20042;-51
2021/03/24 01:59:24;;;;;;;22.83;14.02;;;29.30;77.60;;;;;;5106636;28;20065;-50
2021/03/24 02:01:53;;;;;;;21.92;14.30;;;29.30;78.00;;;;;;5106083;28;20019;-50
2021/03/24 02:04:20;;;;;;;23.58;15.23;;;29.30;78.20;;;;;;5105906;28;20027;-49
2021/03/24 02:07:04;;;;;;;26.52;16.10;;;29.30;78.20;;;;;;5105991;28;20091;-53
2021/03/24 02:09:51;;;;;;;25.70;16.75;;;29.20;78.30;;;;;;5106219;28;20024;-54
2021/03/24 02:12:20;;;;;;;22.25;17.10;;;29.20;78.50;;;;;;5104824;28;20335;-54
2021/03/24 02:15:01;;;;;;;21.83;17.35;;;29.20;78.70;;;;;;5105826;28;20027;-52
2021/03/24 02:17:30;;;;;;;26.87;20.20;;;29.20;78.90;;;;;;5105838;28;20116;-53
2021/03/24 02:20:11;;;;;;;27.67;18.90;;;29.20;78.90;;;;;;5105451;28;20047;-48
2021/03/24 02:22:46;;;;;;;28.20;19.63;;;29.20;79.20;;;;;;5105567;28;20046;-49
2021/03/24 02:25:40;;;;;;;25.40;19.23;;;29.20;79.20;;;;;;5105548;28;20091;-49
2021/03/24 02:28:12;;;;;;;26.60;19.05;;;29.20;79.20;;;;;;5105650;28;20048;-52
2021/03/24 02:30:45;;;;;;;27.60;19.77;;;29.20;79.30;;;;;;5105433;28;20367;-55
2021/03/24 02:33:26;;;;;;;24.88;19.55;;;29.20;79.20;;;;;;5105590;28;20054;-53
2021/03/24 02:36:02;;;;;;;23.77;19.20;;;29.20;79.40;;;;;;5105341;28;20095;-53
2021/03/24 02:38:31;;;;;;;29.92;20.70;;;29.20;79.30;;;;;;5105582;28;20273;-54
2021/03/24 02:41:00;;;;;;;23.77;20.05;;;29.20;79.20;;;;;;5105296;28;20027;-52
2021/03/24 02:43:28;;;;;;;25.40;20.08;;;29.20;78.90;;;;;;5105530;28;20042;-47
2021/03/24 02:45:56;;;;;;;28.40;20.02;;;29.20;78.90;;;;;;5105275;28;20019;-48
2021/03/24 02:48:29;;;;;;;28.52;21.05;;;29.20;78.80;;;;;;5105084;28;20020;-50
2021/03/24 02:50:58;;;;;;;25.40;20.27;;;29.20;79.10;;;;;;5105158;28;20070;-51
2021/03/24 02:53:27;;;;;;;27.02;20.70;;;29.20;79.20;;;;;;5105382;28;20095;-52
2021/03/24 02:55:57;;;;;;;31.27;21.50;;;29.10;79.10;;;;;;5104813;28;20035;-54
2021/03/24 02:58:25;;;;;;;27.58;20.70;;;29.10;78.70;;;;;;5105348;28;20337;-53
2021/03/24 03:00:52;;;;;;;30.58;21.13;;;29.20;79.10;;;;;;5103666;28;20269;-47
2021/03/24 03:03:25;;;;;;;28.73;20.48;;;29.10;78.80;;;;;;5104777;28;20032;-48
2021/03/24 03:05:56;;;;;;;27.33;21.40;;;29.20;78.80;;;;;;5104794;28;20415;-46
2021/03/24 03:08:49;;;;;;;26.75;21.40;;;29.10;78.90;;;;;;5104919;28;20094;-48
2021/03/24 03:11:19;;;;;;;30.00;21.23;;;29.10;78.70;;;;;;5093391;28;20032;-48
2021/03/24 03:13:51;;;;;;;23.88;21.13;;;29.20;78.80;;;;;;5104941;28;20301;-53
2021/03/24 03:16:18;;;;;;;28.38;21.25;;;29.20;79.00;;;;;;5103532;28;20032;-54
2021/03/24 03:19:06;;;;;;;32.85;21.73;;;29.10;78.90;;;;;;5104886;28;20027;-53
2021/03/24 03:21:43;;;;;;;25.73;20.98;;;29.10;79.00;;;;;;5104576;28;20069;-49
2021/03/24 03:24:12;;;;;;;31.50;20.50;;;29.10;79.40;;;;;;5104537;28;20020;-49
2021/03/24 03:26:44;;;;;;;29.70;20.75;;;29.20;79.70;;;;;;5104425;28;20062;-48
2021/03/24 03:29:15;;;;;;;27.65;20.38;;;29.10;79.80;;;;;;5104795;28;20035;-46
2021/03/24 03:31:47;;;;;;;23.60;19.88;;;29.20;80.00;;;;;;5104263;28;20026;-47
2021/03/24 03:34:18;;;;;;;27.27;19.55;;;29.20;80.20;;;;;;5103451;28;20024;-47
2021/03/24 03:36:51;;;;;;;27.45;19.98;;;29.10;80.20;;;;;;5104279;28;20027;-49
2021/03/24 03:39:22;;;;;;;26.50;19.67;;;29.10;80.40;;;;;;5104711;28;20040;-51
2021/03/24 03:41:50;;;;;;;23.27;19.25;;;29.20;80.50;;;;;;5104205;28;20077;-50
2021/03/24 03:44:17;;;;;;;25.83;20.95;;;29.10;80.60;;;;;;5104300;28;20020;-51
2021/03/24 03:46:52;;;;;;;29.92;20.65;;;29.10;80.60;;;;;;5104192;28;20020;-47
2021/03/24 03:49:20;;;;;;;27.27;20.85;;;29.10;80.90;;;;;;5104550;28;20028;-50
2021/03/24 03:52:11;;;;;;;25.60;21.75;;;29.00;80.80;;;;;;5103870;28;20024;-48
2021/03/24 03:55:25;;;;;;;30.08;22.77;;;29.00;81.20;;;;;;5104446;28;20024;-51
2021/03/24 03:57:58;;;;;;;28.10;23.13;;;29.00;81.30;;;;;;5102589;28;20081;-47
2021/03/24 04:00:34;;;;;;;29.42;22.98;;;28.90;81.40;;;;;;5103004;28;20027;-52
2021/03/24 04:03:18;;;;;;;27.77;22.25;;;29.00;81.40;;;;;;5104022;28;20073;-45
2021/03/24 04:05:54;;;;;;;31.52;22.63;;;28.90;81.50;;;;;;5103991;28;20044;-45
2021/03/24 04:08:29;;;;;;;29.17;23.90;;;29.00;81.70;;;;;;5109566;28;20023;-54
2021/03/24 04:10:57;;;;;;;33.28;23.85;;;29.00;81.90;;;;;;5114668;28;20020;-44
2021/03/24 04:13:31;;;;;;;29.58;22.92;;;29.00;82.00;;;;;;5113707;28;20024;-49
2021/03/24 04:15:59;;;;;;;33.28;23.42;;;28.90;81.90;;;;;;5112453;28;20012;-47
2021/03/24 04:18:40;;;;;;;33.47;22.95;;;29.00;82.00;;;;;;5113847;28;20020;-47
2021/03/24 04:21:09;;;;;;;29.02;22.73;;;28.90;81.90;;;;;;5113379;28;20078;-58
2021/03/24 04:23:42;;;;;;;26.50;22.92;;;29.00;82.00;;;;;;5112592;28;20024;-48
2021/03/24 04:26:31;;;;;;;29.95;23.27;;;28.90;81.90;;;;;;5113175;28;20061;-47
2021/03/24 04:29:03;;;;;;;32.17;24.65;;;29.00;82.00;;;;;;5103989;28;20200;-53
2021/03/24 04:31:31;;;;;;;28.30;23.60;;;28.90;82.20;;;;;;5103617;28;20068;-53
2021/03/24 04:33:57;;;;;;;29.27;24.63;;;28.90;82.10;;;;;;5103525;28;20170;-47
2021/03/24 04:36:39;;;;;;;27.02;23.63;;;28.90;82.10;;;;;;5107092;28;20300;-47
2021/03/24 04:39:27;;;;;;;31.40;24.90;;;28.90;82.20;;;;;;5108032;28;20355;-48
2021/03/24 04:41:56;;;;;;;29.30;24.33;;;28.90;82.90;;;;;;5107690;28;20034;-46
2021/03/24 04:44:36;;;;;;;31.15;24.60;;;28.90;82.30;;;;;;5107811;28;20354;-52
2021/03/24 04:47:25;;;;;;;30.77;24.63;;;28.80;82.20;;;;;;5107438;28;20024;-47
2021/03/24 04:49:59;;;;;;;31.20;24.27;;;28.80;82.30;;;;;;5107479;28;20060;-56
2021/03/24 04:52:29;;;;;;;30.98;23.85;;;28.90;82.50;;;;;;5107377;28;20308;-54
2021/03/24 04:55:02;;;;;;;28.45;24.50;;;28.90;82.50;;;;;;5107234;28;20061;-45
2021/03/24 04:57:29;;;;;;;27.77;24.00;;;28.80;82.10;;;;;;5107407;28;20073;-47
2021/03/24 05:00:27;;;;;;;26.30;23.60;;;28.80;82.40;;;;;;5107195;28;20024;-46
2021/03/24 05:02:57;;;;;;;27.73;23.73;;;28.80;82.70;;;;;;5103521;28;20047;-47
2021/03/24 05:05:30;;;;;;;27.15;24.35;;;28.70;83.30;;;;;;5107003;28;20036;-48
2021/03/24 05:08:19;;;;;;;27.13;24.15;;;28.70;82.80;;;;;;5107301;28;20197;-55
2021/03/24 05:10:46;;;;;;;29.40;24.60;;;28.70;82.80;;;;;;5106927;28;20016;-49
2021/03/24 05:13:18;;;;;;;29.60;24.90;;;28.70;83.00;;;;;;5107251;28;20028;-47
2021/03/24 05:15:58;;;;;;;31.55;25.25;;;28.70;83.00;;;;;;5107043;28;20083;-47
2021/03/24 05:18:25;;;;;;;27.02;24.35;;;28.70;83.20;;;;;;5106804;28;20040;-55
2021/03/24 05:21:02;;;;;;;28.30;25.23;;;28.70;83.10;;;;;;5106803;28;20247;-52
2021/03/24 05:23:30;;;;;;;27.73;24.60;;;28.70;83.40;;;;;;5106934;28;20093;-53
2021/03/24 05:26:30;;;;;;;31.73;24.85;;;28.60;83.30;;;;;;5106939;28;20039;-54
2021/03/24 05:29:00;;;;;;;30.58;25.42;;;28.60;83.50;;;;;;5107025;28;20020;-55
2021/03/24 05:31:40;;;;;;;28.55;23.95;;;28.60;84.20;;;;;;5107082;28;20062;-48
2021/03/24 05:34:13;;;;;;;26.02;22.55;;;28.60;84.00;;;;;;5107177;28;20031;-47
2021/03/24 05:36:44;;;;;;;24.10;21.38;;;28.60;84.00;;;;;;5106706;28;20316;-59
2021/03/24 05:39:20;;;;;;;26.50;21.80;;;28.60;83.80;;;;;;5106857;28;20032;-46
2021/03/24 05:41:52;;;;;;;24.35;20.63;;;28.50;83.60;;;;;;5106512;28;20020;-47
2021/03/24 05:44:37;;;;;;;;;;;28.50;83.60;;;;;;5107196;28;20091;-47
2021/03/24 05:47:12;;;;;;;23.90;20.27;;;28.50;83.80;;;;;;5106155;28;19941;-48
2021/03/24 05:49:54;;;;;;;23.23;19.88;;;28.50;83.90;;;;;;5106734;28;20020;-45
2021/03/24 05:52:42;;;;;;;22.90;19.73;;;28.50;83.80;;;;;;5106369;28;20016;-46
2021/03/24 05:55:33;;;;;;;21.42;18.92;;;28.50;84.00;;;;;;5106406;28;20331;-46
2021/03/24 05:58:37;;;;;;;22.30;19.17;;;28.50;83.90;;;;;;5106262;28;20046;-45
2021/03/24 06:01:30;;;;;;;21.55;18.90;;;28.50;83.80;;;;;;5106230;28;20023;-49
2021/03/24 06:04:14;;;;;;;22.23;19.90;;;28.50;83.80;;;;;;5082885;28;20382;-47
2021/03/24 06:07:12;;;;;;;22.15;18.67;;;28.50;83.80;;;;;;5106348;28;20217;-49
2021/03/24 06:10:05;;;;;;;19.92;17.92;;;28.50;83.60;;;;;;5106239;28;20060;-45
2021/03/24 06:12:49;;;;;;;;;;;28.50;83.70;;;;;;5106497;28;20087;-46
2021/03/24 06:15:54;;;;;;;22.55;18.65;;;28.50;84.20;;;;;;5106004;28;19906;-46
2021/03/24 06:18:39;;;;;;;22.48;18.50;;;28.50;83.70;;;;;;5084292;28;20036;-48
2021/03/24 06:21:12;;;;;;;24.13;18.95;;;28.50;83.70;;;;;;5105443;28;20054;-48
2021/03/24 06:24:04;;;;;;;22.33;19.67;;;28.50;83.70;;;;;;5106134;28;20042;-48
2021/03/24 06:26:34;;;;;;;22.83;20.38;;;28.50;83.70;;;;;;5105476;28;20209;-46
2021/03/24 06:29:20;;;;;;;23.95;21.40;;;28.50;83.80;;;;;;5106071;28;20080;-43
2021/03/24 06:31:57;;;;;;;24.45;21.77;;;28.40;83.70;;;;;;5094987;28;20063;-42
2021/03/24 06:34:48;;;;;;;30.20;22.45;;;28.40;83.60;;;;;;5105930;28;20098;-43
2021/03/24 06:37:31;;;;;;;23.05;20.58;;;28.40;83.70;;;;;;5105589;28;20022;-50
2021/03/24 06:40:04;;;;;;;24.50;21.88;;;28.40;84.20;;;;;;5105558;28;20032;-46
2021/03/24 06:42:58;;;;;;;25.85;21.70;;;28.40;83.80;;;;;;5105519;28;20031;-52
2021/03/24 06:45:47;;;;;;;24.15;21.55;;;28.40;83.80;;;;;;5105246;28;20020;-52
2021/03/24 06:48:38;;;;;;;24.77;20.85;;;28.40;83.80;;;;;;5105380;28;20027;-43
2021/03/24 06:51:47;;;;;;;27.48;21.00;;;28.40;83.60;;;;;;5105334;28;20027;-52
2021/03/24 06:54:27;;;;;;;22.98;18.67;;;28.40;83.40;;;;;;5105504;28;20024;-47
2021/03/24 06:57:19;;;;;;;21.65;18.90;;;28.30;83.40;;;;;;5104845;28;20024;-47
2021/03/24 06:59:54;;;;;;;19.38;17.27;;;28.30;83.30;;;;;;5105063;28;20145;-47
2021/03/24 07:02:30;;;;;;;21.92;16.70;;;28.30;83.00;;;;;;5104797;28;20024;-53
2021/03/24 07:05:23;;;;;;;20.05;16.30;;;28.30;82.80;;;;;;5105096;28;20020;-53
2021/03/24 07:08:33;;;;;;;16.00;14.15;;;28.30;82.50;;;;;;5105173;28;20304;-45
2021/03/24 07:11:25;;;;;;;16.70;14.05;;;28.30;82.40;;;;;;5105156;28;20212;-48
2021/03/24 07:14:29;;;;;;;15.67;13.27;;;28.30;81.90;;;;;;5105078;28;20027;-51
2021/03/24 07:17:21;;;;;;;15.73;13.02;;;28.20;81.80;;;;;;5104633;28;20246;-47
2021/03/24 07:19:54;;;;;;;15.90;13.00;;;28.20;81.80;;;;;;5104572;28;20048;-50
2021/03/24 07:22:42;;;;;;;16.67;12.93;;;28.20;82.20;;;;;;5104421;28;20019;-45
2021/03/24 07:25:27;;;;;;;14.02;12.05;;;28.20;81.80;;;;;;5104811;28;20016;-48
2021/03/24 07:28:12;;;;;;;15.55;12.65;;;28.20;81.80;;;;;;5104576;28;20051;-53
2021/03/24 07:30:39;;;;;;;14.40;12.63;;;28.20;81.80;;;;;;5104393;28;20061;-53
2021/03/24 07:33:38;;;;;;;14.38;12.90;;;28.20;81.80;;;;;;5104578;28;20039;-46
2021/03/24 07:36:22;;;;;;;13.85;12.45;;;28.10;81.90;;;;;;5104396;28;20039;-45
2021/03/24 07:39:16;;;;;;;16.08;12.93;;;28.10;82.00;;;;;;5104751;28;20305;-47
2021/03/24 07:42:12;;;;;;;14.30;12.90;;;28.10;82.00;;;;;;5104444;28;20137;-46
2021/03/24 07:44:54;;;;;;;14.52;12.93;;;28.10;81.90;;;;;;5104861;28;20087;-53
2021/03/24 07:47:36;;;;;;;14.23;12.70;;;28.10;82.00;;;;;;5104343;28;20066;-51
2021/03/24 07:50:25;;;;;;;13.60;12.30;;;28.00;81.80;;;;;;5104376;28;20065;-51
2021/03/24 07:53:15;;;;;;;14.50;12.32;;;28.00;81.80;;;;;;5104162;28;20368;-46
2021/03/24 07:56:08;;;;;;;13.85;12.57;;;28.00;81.60;;;;;;5104506;28;20020;-50
2021/03/24 07:58:44;;;;;;;14.35;12.70;;;28.00;81.60;;;;;;5104369;28;20095;-47
2021/03/24 08:01:36;;;;;;;13.55;12.02;;;28.00;81.90;;;;;;5103888;28;20024;-53
2021/03/24 08:04:32;;;;;;;14.18;12.63;;;28.00;81.70;;;;;;5104460;28;20091;-48
2021/03/24 08:07:34;;;;;;;13.57;12.27;;;28.00;81.80;;;;;;5103974;28;20193;-52
2021/03/24 08:10:30;;;;;;;13.57;12.23;;;27.90;81.70;;;;;;5091944;28;20102;-46
2021/03/24 08:13:27;;;;;;;15.32;12.05;;;27.90;81.80;;;;;;5103981;28;20330;-47
2021/03/24 08:16:03;;;;;;;12.98;11.70;;;27.90;82.00;;;;;;5103897;28;20020;-46
2021/03/24 08:18:56;;;;;;;14.57;12.35;;;27.90;82.00;;;;;;5104208;28;20247;-45
2021/03/24 08:21:53;;;;;;;13.60;12.20;;;27.90;82.00;;;;;;5103804;28;20068;-48
2021/03/24 08:24:49;;;;;;;13.32;12.02;;;27.90;82.10;;;;;;5104185;28;20333;-45
2021/03/24 08:27:20;;;;;;;13.38;12.02;;;27.90;82.20;;;;;;5096755;28;20028;-46
2021/03/24 08:30:11;;;;;;;13.77;12.38;;;27.80;82.40;;;;;;5104331;28;20361;-52
2021/03/24 08:33:15;;;;;;;16.73;12.93;;;27.80;82.50;;;;;;5103757;28;20024;-50
2021/03/24 08:35:50;;;;;;;16.77;13.40;;;27.70;82.90;;;;;;5103675;28;20020;-45
2021/03/24 08:38:35;;;;;;;13.38;12.02;;;27.70;83.30;;;;;;5103924;28;20024;-46
2021/03/24 08:41:38;;;;;;;14.35;12.63;;;27.60;83.50;;;;;;5103715;28;20095;-46
2021/03/24 08:44:21;;;;;;;16.42;13.18;;;27.60;83.50;;;;;;5104083;28;20024;-47
2021/03/24 08:47:27;;;;;;;14.45;12.95;;;27.60;83.60;;;;;;5103645;28;20216;-55
2021/03/24 08:49:57;;;;;;;15.57;13.13;;;27.60;83.60;;;;;;5092621;28;20032;-47
2021/03/24 08:52:36;;;;;;;15.90;13.07;;;27.60;83.50;;;;;;5103416;28;20318;-45
2021/03/24 08:55:50;;;;;;;14.45;12.95;;;27.60;83.50;;;;;;5103593;28;20030;-46
2021/03/24 08:58:29;;;;;;;15.65;12.30;;;27.60;83.60;;;;;;5090743;28;20037;-51
2021/03/24 09:01:14;;;;;;;14.07;12.30;;;27.60;83.50;;;;;;5103619;28;20023;-55
2021/03/24 09:04:15;;;;;;;13.10;11.85;;;27.60;83.60;;;;;;5103696;28;20371;-45
2021/03/24 09:07:15;;;;;;;14.13;12.68;;;27.60;83.60;;;;;;5103469;28;20028;-46
2021/03/24 09:10:05;;;;;;;15.88;12.88;;;27.60;83.60;;;;;;5103867;28;20020;-45
2021/03/24 09:12:45;;;;;;;14.10;12.52;;;27.50;84.10;;;;;;5103586;28;20069;-46
2021/03/24 09:15:25;;;;;;;15.02;12.45;;;27.50;84.20;;;;;;5103115;28;20089;-48
2021/03/24 09:17:51;;;;;;;18.40;12.75;;;27.50;84.10;;;;;;5103463;28;20370;-48
2021/03/24 09:20:33;;;;;;;16.35;13.32;;;27.50;84.50;;;;;;5103133;28;20115;-45
2021/03/24 09:23:35;;;;;;;17.40;13.97;;;27.40;84.60;;;;;;5107131;28;20100;-48
2021/03/24 09:26:18;;;;;;;15.45;13.85;;;27.40;84.80;;;;;;5106987;28;20227;-50
2021/03/24 09:29:14;;;;;;;15.18;13.55;;;27.40;84.80;;;;;;5107303;28;20020;-48
2021/03/24 09:31:50;;;;;;;15.15;13.02;;;27.40;84.60;;;;;;5106641;28;20096;-42
2021/03/24 09:34:26;;;;;;;14.80;13.38;;;27.40;84.50;;;;;;5107231;28;20032;-48
2021/03/24 09:36:53;;;;;;;16.83;13.80;;;27.40;84.40;;;;;;5106709;28;20020;-46
2021/03/24 09:39:28;;;;;;;15.88;13.70;;;27.40;84.20;;;;;;5107052;28;20028;-44
2021/03/24 09:42:14;;;;;;;18.45;14.00;;;27.40;84.10;;;;;;5106578;28;20309;-46
2021/03/24 09:45:14;;;;;;;16.42;13.93;;;27.40;83.90;;;;;;5107069;28;20024;-47
2021/03/24 09:47:53;;;;;;;20.50;14.85;;;27.40;83.80;;;;;;5106678;28;20404;-46
2021/03/24 09:50:22;;;;;;;17.83;14.60;;;27.50;83.20;;;;;;5106546;28;20020;-52
2021/03/24 09:53:15;;;;;;;17.70;14.52;;;27.40;83.10;;;;;;5106163;28;20036;-47
2021/03/24 09:55:43;;;;;;;23.80;14.55;;;27.50;83.00;;;;;;5106357;28;20087;-49
2021/03/24 09:58:10;;;;;;;17.23;14.45;;;27.50;83.10;;;;;;5106350;28;20020;-48
2021/03/24 10:01:00;;;;;;;21.88;14.68;;;27.50;83.10;;;;;;5106281;28;20043;-46
2021/03/24 10:04:03;;;;;;;35.55;16.50;;;27.50;83.50;;;;;;5106169;28;20083;-47
2021/03/24 10:06:30;;;;;;;25.58;16.73;;;27.50;85.30;;;;;;5105999;28;20016;-45
2021/03/24 10:09:34;;;;;;;24.92;16.80;;;27.50;86.20;;;;;;5106377;28;20091;-50
2021/03/24 10:12:09;;;;;;;23.88;15.80;;;27.40;87.00;;;;;;5106286;28;20024;-49
2021/03/24 10:14:39;;;;;;;23.67;16.45;;;27.40;87.70;;;;;;5106407;28;20122;-43
2021/03/24 10:17:19;;;;;;;21.88;16.48;;;27.30;88.00;;;;;;5105725;28;20227;-46
2021/03/24 10:19:55;;;;;;;18.40;15.27;;;27.30;87.80;;;;;;5105798;28;20245;-45
2021/03/24 10:22:34;;;;;;;20.33;14.68;;;27.40;88.40;;;;;;5105661;28;20024;-51
2021/03/24 10:25:29;;;;;;;20.20;15.10;;;27.30;87.90;;;;;;5105859;28;20089;-55
2021/03/24 10:28:02;;;;;;;16.88;14.63;;;27.30;88.10;;;;;;5105550;28;20054;-51
2021/03/24 10:30:42;;;;;;;19.65;14.80;;;27.20;88.40;;;;;;5105620;28;20018;-50
2021/03/24 10:33:18;;;;;;;17.27;14.40;;;27.20;88.40;;;;;;5104530;28;20028;-56
2021/03/24 10:36:13;;;;;;;16.95;14.35;;;27.20;88.70;;;;;;5105644;28;20023;-50
2021/03/24 10:39:26;;;;;;;17.45;14.77;;;27.10;88.70;;;;;;5105796;28;20308;-46
2021/03/24 10:41:59;;;;;;;15.45;13.93;;;27.10;88.60;;;;;;5023429;28;20034;-47
2021/03/24 10:44:44;;;;;;;15.65;14.07;;;27.10;88.40;;;;;;5023306;28;20036;-46
2021/03/24 10:47:20;;;;;;;16.35;14.05;;;27.10;88.80;;;;;;5077046;28;20047;-50
2021/03/24 10:50:05;;;;;;;16.05;14.35;;;27.10;88.90;;;;;;5105199;28;20032;-45
2021/03/24 10:53:03;;;;;;;16.33;14.40;;;27.10;89.00;;;;;;5105173;28;20012;-45
2021/03/24 10:55:31;;;;;;;17.48;13.98;;;27.00;89.00;;;;;;5094575;28;20028;-48
2021/03/24 10:58:32;;;;;;;17.30;14.30;;;27.10;89.20;;;;;;5105047;28;20354;-45
2021/03/24 11:01:14;;;;;;;18.92;14.93;;;27.00;89.30;;;;;;5105083;28;20335;-45
2021/03/24 11:04:16;;;;;;;18.50;14.88;;;27.00;89.60;;;;;;5105118;28;20032;-50
2021/03/24 11:07:29;;;;;;;17.58;14.57;;;27.00;89.60;;;;;;5104970;28;20027;-46
2021/03/24 11:10:31;;;;;;;17.42;14.43;;;27.00;89.50;;;;;;5101994;28;20052;-57
2021/03/24 11:13:02;;;;;;;16.38;14.70;;;26.90;89.90;;;;;;5080486;28;20040;-50
2021/03/24 11:16:00;;;;;;;16.13;14.23;;;26.90;90.10;;;;;;5104748;28;20024;-45
2021/03/24 11:18:41;;;;;;;16.13;13.80;;;26.90;90.00;;;;;;5104839;28;20083;-45
2021/03/24 11:21:23;;;;;;;16.05;14.25;;;26.90;89.80;;;;;;5104581;28;20344;-52
2021/03/24 11:24:27;;;;;;;21.95;14.75;;;26.90;89.90;;;;;;5103774;28;20030;-52
2021/03/24 11:27:03;;;;;;;18.52;14.63;;;26.90;89.80;;;;;;5101665;28;20216;-47
2021/03/24 11:29:32;;;;;;;15.10;13.60;;;26.90;89.80;;;;;;5104346;28;20216;-54
2021/03/24 11:32:25;;;;;;;16.00;14.40;;;26.90;89.90;;;;;;5104638;28;20043;-52
2021/03/24 11:35:05;;;;;;;15.90;13.93;;;26.90;89.80;;;;;;5101430;28;20266;-47
2021/03/24 11:37:41;;;;;;;17.50;13.82;;;26.80;90.20;;;;;;5103000;28;20042;-47
2021/03/24 11:40:27;;;;;;;15.95;14.02;;;26.80;90.20;;;;;;5099314;28;20026;-46
2021/03/24 11:43:09;;;;;;;17.50;14.20;;;26.80;90.20;;;;;;5104317;28;20059;-48
2021/03/24 11:45:37;;;;;;;;;;;26.90;90.20;;;;;;5104578;28;20019;-51
2021/03/24 11:48:24;;;;;;;18.27;13.93;;;26.90;90.40;;;;;;5104212;28;19950;-52
2021/03/24 11:50:59;;;;;;;16.52;14.65;;;26.90;90.20;;;;;;5104517;28;20318;-47
2021/03/24 11:53:55;;;;;;;19.90;14.10;;;26.90;90.30;;;;;;5104344;28;20121;-49
2021/03/24 11:56:53;;;;;;;16.77;14.45;;;27.00;90.20;;;;;;5103185;28;20123;-53
2021/03/24 11:59:39;;;;;;;19.13;14.73;;;27.00;90.20;;;;;;5104342;28;20296;-47
2021/03/24 12:02:22;;;;;;;17.67;15.50;;;27.00;89.90;;;;;;5103856;28;20028;-48
2021/03/24 12:05:01;;;;;;;18.67;15.35;;;27.10;90.10;;;;;;5103961;28;20024;-49
2021/03/24 12:07:50;;;;;;;17.60;15.30;;;27.10;90.10;;;;;;5102621;28;20012;-52
2021/03/24 12:10:35;;;;;;;16.88;14.18;;;27.20;89.80;;;;;;5099873;28;20041;-53
2021/03/24 12:13:30;;;;;;;15.63;14.02;;;27.30;89.70;;;;;;5103798;28;20032;-47
2021/03/24 12:16:09;;;;;;;18.73;14.48;;;27.30;89.70;;;;;;5103703;28;20383;-53
2021/03/24 12:18:51;;;;;;;19.08;14.82;;;27.30;89.10;;;;;;5104012;28;20105;-52
2021/03/24 12:21:27;;;;;;;16.33;14.60;;;27.40;89.70;;;;;;5103693;28;20086;-47
2021/03/24 12:23:57;;;;;;;16.50;14.90;;;27.40;89.50;;;;;;5104044;28;20036;-48
2021/03/24 12:26:29;;;;;;;17.40;13.85;;;27.50;89.20;;;;;;5103490;28;20186;-49
2021/03/24 12:29:07;;;;;;;17.13;14.35;;;27.70;88.70;;;;;;5103472;28;20019;-52
2021/03/24 12:31:47;;;;;;;15.70;13.85;;;27.70;88.10;;;;;;5103680;28;20016;-52
2021/03/24 12:34:17;;;;;;;16.08;14.55;;;27.70;88.10;;;;;;5103538;28;20012;-47
2021/03/24 12:36:59;;;;;;;15.55;13.77;;;27.70;88.00;;;;;;5103686;28;20019;-47
2021/03/24 12:39:35;;;;;;;22.17;14.15;;;27.60;88.00;;;;;;5104123;28;20024;-50
2021/03/24 12:42:32;;;;;;;16.35;14.50;;;27.60;88.00;;;;;;5103475;28;20051;-49
2021/03/24 12:45:01;;;;;;;17.50;14.57;;;27.60;88.40;;;;;;5091072;28;20060;-48
2021/03/24 12:47:42;;;;;;;18.45;15.23;;;27.60;88.70;;;;;;5102103;28;20020;-52
2021/03/24 12:50:12;;;;;;;18.80;15.20;;;27.60;89.10;;;;;;5098400;28;20016;-52
2021/03/24 12:52:47;;;;;;;17.70;14.45;;;27.60;88.80;;;;;;5103415;28;20020;-51
2021/03/24 12:55:17;;;;;;;23.52;15.65;;;27.60;88.60;;;;;;5103521;28;20020;-52
2021/03/24 12:58:28;;;;;;;17.77;15.60;;;27.60;88.40;;;;;;5107552;28;20308;-53
2021/03/24 13:01:12;;;;;;;18.10;15.27;;;27.60;88.70;;;;;;5045146;28;20059;-47
2021/03/24 13:04:12;;;;;;;25.67;15.88;;;27.40;89.20;;;;;;5045034;28;20411;-50
2021/03/24 13:07:17;;;;;;;19.17;15.40;;;27.40;89.20;;;;;;5096628;28;20036;-49
2021/03/24 13:09:53;;;;;;;16.25;14.52;;;27.60;89.80;;;;;;5056734;28;20040;-46
2021/03/24 13:12:52;;;;;;;19.20;14.63;;;27.70;89.00;;;;;;5106672;28;20310;-50
2021/03/24 13:15:43;;;;;;;21.38;14.38;;;27.80;88.90;;;;;;5106866;28;20024;-47
2021/03/24 13:18:32;;;;;;;19.40;14.15;;;27.90;88.20;;;;;;5107066;28;20023;-48
2021/03/24 13:21:04;;;;;;;15.68;13.65;;;28.00;87.50;;;;;;5106769;28;20122;-47
2021/03/24 13:23:46;;;;;;;15.95;13.45;;;28.00;87.60;;;;;;5107241;28;20326;-46
2021/03/24 13:26:29;;;;;;;15.13;13.52;;;28.00;87.30;;;;;;5106912;28;20083;-47
2021/03/24 13:29:16;;;;;;;17.38;13.65;;;28.10;87.20;;;;;;5106744;28;20024;-52
2021/03/24 13:31:52;;;;;;;15.20;13.55;;;28.10;86.30;;;;;;5106557;28;20091;-53